Time;durP1;ratioP1;P1;durP2;ratioP2;P2;SDS_P1;SDS_P2;PMS_P1;PMS_P2;Temp;Humidity;BMP_temperature;BMP_pressure;BME280_temperature;BME280_humidity;BME280_pressure;Samples;Min_cycle;Max_cycle;Signal;HPM_P1;HPM_P2
2021/07/18 00:02:16;;;;;;;1.30;1.00;;;23.00;99.90;;;;;;5063748;28;20460;-76
2021/07/18 00:04:43;;;;;;;1.30;1.10;;;23.00;99.90;;;;;;5072810;28;20445;-76
2021/07/18 00:07:09;;;;;;;1.30;1.20;;;23.00;99.90;;;;;;5074074;28;20479;-75
2021/07/18 00:09:37;;;;;;;1.70;1.23;;;23.00;99.90;;;;;;5071724;28;20473;-76
2021/07/18 00:12:05;;;;;;;1.60;1.50;;;23.00;99.90;;;;;;5073266;28;20455;-75
2021/07/18 00:14:32;;;;;;;1.50;1.40;;;22.90;99.90;;;;;;5070616;28;20468;-76
2021/07/18 00:16:59;;;;;;;2.37;1.33;;;22.90;99.90;;;;;;5066139;28;20547;-75
2021/07/18 00:19:25;;;;;;;1.93;1.73;;;22.90;99.90;;;;;;5068138;28;20467;-76
2021/07/18 00:21:52;;;;;;;1.43;1.00;;;22.90;99.90;;;;;;5069007;28;20456;-76
2021/07/18 00:24:19;;;;;;;1.30;1.17;;;22.90;99.90;;;;;;5071953;28;20536;-76
2021/07/18 00:26:47;;;;;;;1.97;1.00;;;22.80;99.90;;;;;;5074010;28;20472;-76
2021/07/18 00:29:13;;;;;;;3.63;1.70;;;22.80;99.90;;;;;;5064650;28;20472;-75
2021/07/18 00:31:40;;;;;;;1.63;1.33;;;22.80;99.90;;;;;;5072517;28;20804;-76
2021/07/18 00:34:07;;;;;;;3.97;1.17;;;22.80;99.90;;;;;;5072383;28;20878;-75
2021/07/18 00:36:34;;;;;;;1.70;1.17;;;22.70;99.90;;;;;;5074017;28;20441;-76
2021/07/18 00:39:00;;;;;;;1.57;1.47;;;22.70;99.90;;;;;;5072354;28;20464;-75
2021/07/18 00:41:27;;;;;;;1.83;1.53;;;22.70;99.90;;;;;;5070692;28;20488;-76
2021/07/18 00:43:55;;;;;;;2.77;1.40;;;22.70;99.90;;;;;;5068398;28;20857;-76
2021/07/18 00:46:22;;;;;;;1.90;1.40;;;22.70;99.90;;;;;;5059276;28;20464;-76
2021/07/18 00:48:48;;;;;;;1.40;1.30;;;22.70;99.90;;;;;;5063247;28;20464;-75
2021/07/18 00:51:16;;;;;;;1.23;1.13;;;22.60;99.90;;;;;;5068456;28;20464;-75
2021/07/18 00:53:43;;;;;;;1.87;1.20;;;22.60;99.90;;;;;;5072375;28;20441;-76
2021/07/18 00:56:10;;;;;;;1.93;1.33;;;22.60;99.90;;;;;;5070415;28;20465;-76
2021/07/18 00:58:38;;;;;;;1.77;1.10;;;22.60;99.90;;;;;;5068635;28;20583;-76
2021/07/18 01:01:06;;;;;;;2.30;1.40;;;22.60;99.90;;;;;;5065391;28;20821;-76
2021/07/18 01:03:32;;;;;;;2.00;1.80;;;22.60;99.90;;;;;;5063097;28;20448;-75
2021/07/18 01:05:59;;;;;;;1.53;1.33;;;22.60;99.90;;;;;;5066116;28;20964;-76
2021/07/18 01:08:27;;;;;;;1.90;1.40;;;22.60;99.90;;;;;;5068180;28;20485;-75
2021/07/18 01:10:54;;;;;;;1.30;1.07;;;22.60;99.90;;;;;;5068259;28;20453;-76
2021/07/18 01:13:21;;;;;;;1.23;1.07;;;22.60;99.90;;;;;;5067532;28;20456;-76
2021/07/18 01:15:47;;;;;;;1.53;1.20;;;22.50;99.90;;;;;;5066291;28;20461;-76
2021/07/18 01:18:15;;;;;;;1.67;1.13;;;22.50;99.90;;;;;;5067084;28;20449;-76
2021/07/18 01:20:44;;;;;;;2.00;1.53;;;22.50;99.90;;;;;;5067821;28;20919;-76
2021/07/18 01:23:12;;;;;;;1.50;1.30;;;22.50;99.90;;;;;;5066937;28;20461;-76
2021/07/18 01:25:39;;;;;;;1.63;1.47;;;22.50;99.90;;;;;;5068114;28;20461;-76
2021/07/18 01:28:08;;;;;;;1.40;1.23;;;22.50;99.90;;;;;;5067457;28;20828;-76
2021/07/18 01:30:35;;;;;;;1.73;1.63;;;22.40;99.90;;;;;;5067062;28;20935;-76
2021/07/18 01:33:01;;;;;;;1.70;1.20;;;22.40;99.90;;;;;;5071254;28;21020;-76
2021/07/18 01:35:28;;;;;;;1.83;1.37;;;22.40;99.90;;;;;;5069842;28;20457;-76
2021/07/18 01:37:55;;;;;;;2.63;1.57;;;22.40;99.90;;;;;;5073252;28;20445;-76
2021/07/18 01:40:24;;;;;;;1.70;1.50;;;22.40;99.90;;;;;;5061774;28;20461;-77
2021/07/18 01:42:51;;;;;;;1.30;1.20;;;22.30;99.90;;;;;;5070819;28;20488;-77
2021/07/18 01:45:18;;;;;;;3.53;1.23;;;22.30;99.90;;;;;;5073071;28;20464;-76
2021/07/18 01:47:46;;;;;;;1.30;1.20;;;22.30;99.90;;;;;;5057776;28;20968;-77
2021/07/18 01:50:13;;;;;;;2.20;1.57;;;22.30;99.90;;;;;;5062372;28;20457;-77
2021/07/18 01:52:40;;;;;;;2.43;1.60;;;22.30;99.90;;;;;;5069210;28;20474;-77
2021/07/18 01:55:08;;;;;;;2.10;1.77;;;22.30;99.90;;;;;;5066617;28;20468;-76
2021/07/18 01:57:36;;;;;;;2.13;1.50;;;22.20;99.90;;;;;;5068474;28;20457;-77
2021/07/18 02:00:05;;;;;;;2.37;1.60;;;22.20;99.90;;;;;;5068476;28;20527;-76
2021/07/18 02:02:32;;;;;;;2.60;1.80;;;22.20;99.90;;;;;;5065350;28;20465;-77
2021/07/18 02:04:59;;;;;;;1.73;1.50;;;22.20;99.90;;;;;;5068056;28;20843;-76
2021/07/18 02:07:27;;;;;;;1.53;1.40;;;22.20;99.90;;;;;;5069588;28;20472;-77
2021/07/18 02:09:55;;;;;;;3.60;1.50;;;22.20;99.90;;;;;;5065404;28;20453;-77
2021/07/18 02:12:21;;;;;;;1.40;1.30;;;22.20;99.90;;;;;;5067764;28;20460;-76
2021/07/18 02:14:49;;;;;;;1.60;1.50;;;22.10;99.90;;;;;;5068150;28;20460;-77
2021/07/18 02:17:16;;;;;;;1.60;1.50;;;22.10;99.90;;;;;;5066472;28;20453;-76
2021/07/18 02:19:43;;;;;;;2.83;1.17;;;22.10;99.90;;;;;;5068329;28;20460;-76
2021/07/18 02:22:11;;;;;;;2.43;1.53;;;22.10;99.90;;;;;;5066197;28;20456;-76
2021/07/18 02:24:38;;;;;;;3.23;1.50;;;22.10;99.90;;;;;;5065711;28;20507;-78
2021/07/18 02:27:07;;;;;;;2.70;1.73;;;22.00;99.90;;;;;;5068112;28;20506;-76
2021/07/18 02:29:34;;;;;;;1.90;1.80;;;22.00;99.90;;;;;;5065810;28;20458;-76
2021/07/18 02:32:02;;;;;;;2.17;1.53;;;22.00;99.90;;;;;;5068497;28;20457;-76
2021/07/18 02:34:28;;;;;;;2.13;1.20;;;22.00;99.90;;;;;;5075940;28;20599;-76
2021/07/18 02:36:55;;;;;;;1.83;1.45;;;22.00;99.90;;;;;;5075572;28;20468;-76
2021/07/18 02:39:22;;;;;;;1.80;1.60;;;22.00;99.90;;;;;;5075942;28;20210;-75
2021/07/18 02:41:49;;;;;;;1.80;1.37;;;22.00;99.90;;;;;;5073753;28;20317;-76
2021/07/18 02:44:15;;;;;;;1.60;1.50;;;21.90;99.90;;;;;;5076294;28;20974;-76
2021/07/18 02:46:42;;;;;;;2.00;1.48;;;21.90;99.90;;;;;;5075578;28;20210;-76
2021/07/18 02:49:10;;;;;;;2.00;1.60;;;21.90;99.90;;;;;;5075163;28;20280;-76
2021/07/18 02:51:37;;;;;;;2.67;1.73;;;21.90;99.90;;;;;;5072682;28;20522;-75
2021/07/18 02:54:03;;;;;;;1.73;1.60;;;21.90;99.90;;;;;;5075171;28;20457;-75
2021/07/18 02:56:30;;;;;;;2.83;2.60;;;21.90;99.90;;;;;;5074920;28;20207;-75
2021/07/18 02:58:57;;;;;;;2.13;1.47;;;21.80;99.90;;;;;;5074491;28;20464;-76
2021/07/18 03:01:24;;;;;;;1.63;1.52;;;21.80;99.90;;;;;;5063068;28;20472;-76
2021/07/18 03:03:50;;;;;;;2.17;1.50;;;21.80;99.90;;;;;;5070781;28;20264;-77
2021/07/18 03:06:18;;;;;;;2.42;1.65;;;21.80;99.90;;;;;;5071352;28;20210;-78
2021/07/18 03:08:45;;;;;;;2.53;1.73;;;21.80;99.90;;;;;;5069600;28;20210;-78
2021/07/18 03:11:11;;;;;;;1.85;1.65;;;21.70;99.90;;;;;;5066562;28;20210;-78
2021/07/18 03:13:38;;;;;;;2.33;1.63;;;21.70;99.90;;;;;;5069548;28;20206;-77
2021/07/18 03:16:05;;;;;;;2.40;1.60;;;21.70;99.90;;;;;;5070776;28;20209;-77
2021/07/18 03:18:32;;;;;;;1.60;1.50;;;21.70;99.90;;;;;;5070017;28;20256;-77
2021/07/18 03:20:59;;;;;;;2.10;1.30;;;21.70;99.90;;;;;;5068031;28;20519;-77
2021/07/18 03:23:27;;;;;;;1.75;1.65;;;21.70;99.90;;;;;;5069738;28;20199;-77
2021/07/18 03:25:54;;;;;;;2.85;2.08;;;21.60;99.90;;;;;;5069756;28;20202;-77
2021/07/18 03:28:20;;;;;;;1.92;1.80;;;21.60;99.90;;;;;;5068344;28;20229;-77
2021/07/18 03:30:47;;;;;;;1.65;1.52;;;21.60;99.90;;;;;;5067963;28;20217;-76
2021/07/18 03:33:14;;;;;;;1.58;1.20;;;21.60;99.90;;;;;;5069332;28;20549;-77
2021/07/18 03:35:40;;;;;;;1.65;1.25;;;21.60;99.90;;;;;;5069574;28;20534;-77
2021/07/18 03:38:07;;;;;;;2.38;1.83;;;21.60;99.90;;;;;;5071144;28;20206;-77
2021/07/18 03:40:35;;;;;;;3.20;1.85;;;21.60;99.90;;;;;;5067835;28;20198;-77
2021/07/18 03:43:02;;;;;;;1.73;1.60;;;21.50;99.90;;;;;;5067914;28;20199;-77
2021/07/18 03:45:28;;;;;;;2.00;1.80;;;21.50;99.90;;;;;;5070578;28;20195;-76
2021/07/18 03:47:55;;;;;;;2.22;1.60;;;21.50;99.90;;;;;;5070774;28;20219;-76
2021/07/18 03:50:22;;;;;;;1.67;1.58;;;21.50;99.90;;;;;;5069131;28;20194;-78
2021/07/18 03:52:50;;;;;;;1.48;1.38;;;21.50;99.90;;;;;;5063797;28;20209;-76
2021/07/18 03:55:16;;;;;;;1.67;1.58;;;21.50;99.90;;;;;;5062167;28;20257;-75
2021/07/18 03:57:44;;;;;;;1.77;1.60;;;21.50;99.90;;;;;;5064121;28;20190;-76
2021/07/18 04:00:12;;;;;;;3.00;1.73;;;21.40;99.90;;;;;;5058993;28;20202;-76
2021/07/18 04:02:39;;;;;;;1.60;1.50;;;21.40;99.90;;;;;;5073331;28;20195;-75
2021/07/18 04:05:06;;;;;;;2.47;1.60;;;21.40;99.90;;;;;;5074149;28;20277;-75
2021/07/18 04:07:33;;;;;;;4.18;2.00;;;21.40;99.90;;;;;;5069796;28;20273;-75
2021/07/18 04:10:01;;;;;;;1.92;1.42;;;21.30;99.90;;;;;;5063561;28;20191;-75
2021/07/18 04:12:27;;;;;;;1.80;1.58;;;21.30;99.90;;;;;;5073909;28;20190;-77
2021/07/18 04:14:56;;;;;;;1.40;1.30;;;21.30;99.90;;;;;;5074064;28;20210;-75
2021/07/18 04:17:23;;;;;;;2.30;1.48;;;21.30;99.90;;;;;;5074019;28;20202;-76
2021/07/18 04:19:50;;;;;;;1.80;1.70;;;21.30;99.90;;;;;;5072851;28;20195;-76
2021/07/18 04:22:16;;;;;;;1.95;1.67;;;21.30;99.90;;;;;;5073415;28;20198;-76
2021/07/18 04:24:43;;;;;;;2.78;1.70;;;21.20;99.90;;;;;;5074123;28;20207;-76
2021/07/18 04:27:10;;;;;;;1.90;1.80;;;21.30;99.90;;;;;;5063767;28;20206;-76
2021/07/18 04:29:36;;;;;;;2.13;1.92;;;21.20;99.90;;;;;;5064026;28;20253;-76
2021/07/18 04:32:05;;;;;;;2.03;1.90;;;21.20;99.90;;;;;;5066479;28;20198;-76
2021/07/18 04:34:32;;;;;;;1.88;1.73;;;21.20;99.90;;;;;;5061934;28;20338;-77
2021/07/18 04:36:59;;;;;;;1.80;1.70;;;21.30;99.90;;;;;;5070913;28;20199;-76
2021/07/18 04:39:25;;;;;;;1.38;1.27;;;21.20;99.90;;;;;;5066586;28;20209;-76
2021/07/18 04:41:52;;;;;;;1.85;1.35;;;21.20;99.90;;;;;;5062811;28;21779;-76
2021/07/18 04:44:19;;;;;;;2.42;1.50;;;21.20;99.90;;;;;;5069491;28;20206;-76
2021/07/18 04:46:45;;;;;;;1.77;1.55;;;21.20;99.90;;;;;;5063022;28;20206;-76
2021/07/18 04:49:13;;;;;;;2.55;1.77;;;21.20;99.90;;;;;;5062731;28;21727;-77
2021/07/18 04:51:40;;;;;;;2.30;1.52;;;21.10;99.90;;;;;;5066556;28;20200;-76
2021/07/18 04:54:07;;;;;;;2.38;1.60;;;21.10;99.90;;;;;;5066999;28;20377;-76
2021/07/18 04:56:33;;;;;;;7.53;2.50;;;21.10;99.90;;;;;;5064163;28;20218;-77
2021/07/18 04:59:00;;;;;;;2.78;1.83;;;21.10;99.90;;;;;;5064926;28;20199;-76
2021/07/18 05:01:27;;;;;;;2.10;1.95;;;21.10;99.90;;;;;;5070314;28;20221;-76
2021/07/18 05:03:53;;;;;;;2.60;1.60;;;21.10;99.90;;;;;;5073088;28;20637;-76
2021/07/18 05:06:21;;;;;;;1.95;1.73;;;21.10;99.90;;;;;;5072327;28;20241;-76
2021/07/18 05:08:48;;;;;;;1.80;1.67;;;21.10;99.90;;;;;;5072474;28;20225;-77
2021/07/18 05:11:15;;;;;;;2.28;2.05;;;21.10;99.90;;;;;;5071785;28;20625;-77
2021/07/18 05:13:41;;;;;;;2.15;2.05;;;21.10;99.90;;;;;;5071924;28;20559;-77
2021/07/18 05:16:08;;;;;;;1.52;1.40;;;21.10;99.90;;;;;;5072170;28;20592;-76
2021/07/18 05:18:35;;;;;;;1.60;1.50;;;21.10;99.90;;;;;;5072367;28;20199;-76
2021/07/18 05:21:02;;;;;;;1.98;1.80;;;21.10;99.90;;;;;;5072032;28;20404;-79
2021/07/18 05:23:30;;;;;;;1.58;1.48;;;21.10;99.90;;;;;;5070153;28;20199;-77
2021/07/18 05:25:56;;;;;;;2.15;1.30;;;21.10;99.90;;;;;;5066524;28;20195;-79
2021/07/18 05:28:23;;;;;;;1.73;1.42;;;21.10;99.90;;;;;;5065621;28;20215;-78
2021/07/18 05:30:50;;;;;;;3.60;1.85;;;21.10;99.90;;;;;;5067749;28;20210;-78
2021/07/18 05:33:17;;;;;;;1.90;1.30;;;21.10;99.90;;;;;;5066398;28;20209;-78
2021/07/18 05:35:44;;;;;;;2.88;1.77;;;21.10;99.90;;;;;;5065717;28;20214;-78
2021/07/18 05:38:10;;;;;;;2.55;1.80;;;21.10;99.90;;;;;;5067376;28;20214;-78
2021/07/18 05:40:38;;;;;;;3.67;2.25;;;21.10;99.90;;;;;;5067886;28;20198;-78
2021/07/18 05:43:05;;;;;;;1.90;1.52;;;21.20;99.90;;;;;;5066724;28;20668;-77
2021/07/18 05:45:32;;;;;;;2.03;1.85;;;21.30;99.90;;;;;;5067723;28;20203;-79
2021/07/18 05:47:59;;;;;;;1.50;1.40;;;21.50;99.90;;;;;;5068013;28;20205;-78
2021/07/18 05:50:25;;;;;;;2.25;1.42;;;21.70;99.90;;;;;;5068598;28;20195;-78
2021/07/18 05:52:52;;;;;;;1.75;1.65;;;21.90;99.90;;;;;;5066426;28;20671;-78
2021/07/18 05:55:19;;;;;;;3.00;1.80;;;22.10;99.90;;;;;;5067732;28;20195;-78
2021/07/18 05:57:47;;;;;;;2.63;1.70;;;22.30;99.90;;;;;;5062847;28;20470;-79
2021/07/18 06:00:14;;;;;;;1.67;1.57;;;22.50;99.90;;;;;;5063675;28;20460;-77
2021/07/18 06:02:41;;;;;;;1.50;1.40;;;22.70;99.90;;;;;;5072127;28;20472;-78
2021/07/18 06:05:10;;;;;;;2.40;1.40;;;22.80;99.90;;;;;;5068271;28;20813;-78
2021/07/18 06:07:37;;;;;;;3.00;1.60;;;23.00;99.90;;;;;;5069517;28;20452;-78
2021/07/18 06:10:05;;;;;;;1.90;1.50;;;23.10;99.90;;;;;;5070070;28;20491;-78
2021/07/18 06:12:32;;;;;;;1.93;1.73;;;23.20;99.90;;;;;;5071186;28;20461;-77
2021/07/18 06:15:00;;;;;;;3.30;1.67;;;23.30;99.90;;;;;;5071276;28;20457;-76
2021/07/18 06:17:27;;;;;;;1.53;1.30;;;23.40;99.90;;;;;;5069713;28;20471;-78
2021/07/18 06:19:54;;;;;;;2.53;1.27;;;23.50;99.90;;;;;;5069081;28;20520;-79
2021/07/18 06:22:21;;;;;;;3.03;1.77;;;23.60;99.90;;;;;;5071472;28;20868;-80
2021/07/18 06:24:48;;;;;;;1.57;1.37;;;23.70;99.90;;;;;;5070540;28;20457;-82
2021/07/18 06:27:15;;;;;;;1.93;1.43;;;23.80;99.90;;;;;;5069791;28;20530;-79
2021/07/18 06:29:42;;;;;;;1.30;1.10;;;24.00;99.90;;;;;;5070338;28;20477;-79
2021/07/18 06:32:10;;;;;;;1.93;1.70;;;24.00;99.90;;;;;;5070201;28;20468;-78
2021/07/18 06:34:37;;;;;;;1.47;1.37;;;24.20;99.90;;;;;;5071996;28;20456;-81
2021/07/18 06:37:04;;;;;;;1.67;1.33;;;24.30;99.90;;;;;;5069388;28;20465;-80
2021/07/18 06:39:31;;;;;;;1.37;1.27;;;24.40;99.90;;;;;;5068714;28;20461;-80
2021/07/18 06:41:57;;;;;;;1.80;1.20;;;24.50;99.90;;;;;;5085883;28;20481;-81
2021/07/18 06:44:24;;;;;;;1.50;1.30;;;24.50;99.90;;;;;;5080163;28;20476;-81
2021/07/18 06:46:51;;;;;;;1.93;1.33;;;24.60;99.90;;;;;;5074010;28;20453;-81
2021/07/18 06:49:19;;;;;;;4.40;1.60;;;24.60;99.90;;;;;;5069952;28;20481;-80
2021/07/18 06:51:45;;;;;;;1.60;1.50;;;24.70;99.90;;;;;;5060484;28;20457;-82
2021/07/18 06:54:12;;;;;;;1.10;1.00;;;24.80;99.90;;;;;;5063455;28;20924;-81
2021/07/18 06:56:39;;;;;;;1.50;1.20;;;24.90;99.90;;;;;;5065306;28;20986;-81
2021/07/18 06:59:05;;;;;;;1.70;1.53;;;25.00;99.90;;;;;;5066897;28;20491;-81
2021/07/18 07:01:32;;;;;;;3.50;1.40;;;25.00;99.90;;;;;;5068399;28;20468;-80
2021/07/18 07:03:59;;;;;;;1.80;1.27;;;25.10;99.90;;;;;;5069458;28;20464;-81
2021/07/18 07:06:27;;;;;;;1.90;1.30;;;25.10;99.90;;;;;;5074757;28;20451;-85
2021/07/18 07:08:53;;;;;;;1.60;1.30;;;25.20;99.90;;;;;;5074723;28;20487;-83
2021/07/18 07:11:21;;;;;;;1.20;1.10;;;25.30;99.90;;;;;;5072329;28;20466;-80
2021/07/18 07:13:50;;;;;;;1.30;1.20;;;25.30;99.90;;;;;;5073950;28;20449;-80
2021/07/18 07:16:16;;;;;;;1.93;1.20;;;25.50;99.90;;;;;;5056834;28;20457;-80
2021/07/18 07:18:43;;;;;;;3.73;1.17;;;25.50;99.90;;;;;;5057477;28;20460;-80
2021/07/18 07:21:10;;;;;;;2.40;1.30;;;25.50;99.90;;;;;;5062084;28;20484;-80
2021/07/18 07:23:38;;;;;;;1.40;1.30;;;25.60;99.90;;;;;;5072967;28;20468;-80
2021/07/18 07:26:05;;;;;;;1.60;1.20;;;25.70;99.90;;;;;;5073194;28;20457;-81
2021/07/18 07:28:33;;;;;;;2.63;1.30;;;25.70;99.90;;;;;;5074254;28;20449;-80
2021/07/18 07:31:00;;;;;;;1.90;1.50;;;25.80;99.90;;;;;;5073443;28;20465;-81
2021/07/18 07:33:29;;;;;;;1.50;1.10;;;25.80;99.90;;;;;;5073249;28;20468;-81
2021/07/18 07:35:55;;;;;;;2.50;1.40;;;25.90;99.90;;;;;;5075027;28;20970;-80
2021/07/18 07:38:22;;;;;;;1.50;1.37;;;26.00;99.90;;;;;;5070827;28;20475;-81
2021/07/18 07:40:50;;;;;;;1.60;1.10;;;26.00;99.90;;;;;;5069514;28;20571;-81
2021/07/18 07:43:17;;;;;;;1.43;1.20;;;26.10;99.90;;;;;;5068967;28;20449;-82
2021/07/18 07:45:44;;;;;;;1.43;1.03;;;26.10;99.90;;;;;;5070927;28;20464;-81
2021/07/18 07:48:11;;;;;;;1.70;1.30;;;26.20;99.90;;;;;;5068656;28;20484;-82
2021/07/18 07:50:38;;;;;;;1.20;1.00;;;26.20;99.90;;;;;;5068671;28;20484;-81
2021/07/18 07:53:06;;;;;;;1.57;1.20;;;26.30;99.90;;;;;;5064573;28;20463;-81
2021/07/18 07:55:34;;;;;;;1.23;1.03;;;26.30;99.90;;;;;;5070153;28;20848;-81
2021/07/18 07:58:02;;;;;;;1.93;1.03;;;26.40;99.90;;;;;;5070343;28;20445;-82
2021/07/18 08:00:29;;;;;;;1.10;0.90;;;26.40;99.90;;;;;;5070003;28;20449;-82
2021/07/18 08:02:56;;;;;;;1.43;1.10;;;26.50;99.90;;;;;;5069244;28;20469;-81
2021/07/18 08:05:22;;;;;;;1.50;1.40;;;26.60;99.90;;;;;;5069729;28;20964;-82
2021/07/18 08:07:49;;;;;;;2.13;1.20;;;26.60;99.90;;;;;;5069865;28;20907;-81
2021/07/18 08:10:19;;;;;;;1.63;1.30;;;26.60;99.90;;;;;;5067544;28;20485;-82
2021/07/18 08:12:47;;;;;;;1.27;1.17;;;26.70;99.90;;;;;;5067822;28;20456;-82
2021/07/18 08:15:17;;;;;;;1.37;1.10;;;26.70;99.90;;;;;;5065474;28;20920;-82
2021/07/18 08:17:44;;;;;;;1.87;1.20;;;26.80;99.90;;;;;;5069717;28;20946;-81
2021/07/18 08:20:14;;;;;;;1.87;1.30;;;26.80;99.90;;;;;;5060744;28;20461;-81
2021/07/18 08:22:41;;;;;;;1.37;1.27;;;26.90;99.90;;;;;;5067177;28;20449;-81
2021/07/18 08:25:09;;;;;;;1.80;1.30;;;26.90;99.90;;;;;;5066455;28;20461;-81
2021/07/18 08:27:36;;;;;;;2.10;1.60;;;27.00;99.90;;;;;;5068191;28;20475;-81
2021/07/18 08:30:05;;;;;;;1.77;1.10;;;27.00;99.90;;;;;;5067288;28;20499;-81
2021/07/18 08:32:33;;;;;;;2.23;2.03;;;27.00;99.90;;;;;;5066206;28;20464;-81
2021/07/18 08:35:00;;;;;;;1.70;1.20;;;27.10;99.90;;;;;;5061958;28;20460;-79
2021/07/18 08:37:27;;;;;;;1.43;1.13;;;27.10;99.90;;;;;;5067075;28;20464;-80
2021/07/18 08:39:54;;;;;;;1.33;1.23;;;27.10;99.90;;;;;;5068813;28;20453;-80
2021/07/18 08:42:21;;;;;;;2.00;1.70;;;27.20;99.90;;;;;;5072825;28;20480;-79
2021/07/18 08:44:48;;;;;;;2.10;1.57;;;27.20;99.90;;;;;;5068775;28;20460;-80
2021/07/18 08:47:17;;;;;;;1.57;1.00;;;27.30;99.90;;;;;;5061995;28;20484;-80
2021/07/18 08:49:45;;;;;;;1.90;1.20;;;27.30;99.90;;;;;;5064089;28;20990;-80
2021/07/18 08:52:13;;;;;;;1.30;1.17;;;27.30;99.90;;;;;;5064629;28;20470;-86
2021/07/18 08:54:39;;;;;;;1.30;1.10;;;27.30;99.90;;;;;;5062892;28;20464;-81
2021/07/18 08:57:07;;;;;;;2.23;1.20;;;27.30;99.90;;;;;;5063700;28;20468;-84
2021/07/18 08:59:35;;;;;;;1.50;1.40;;;27.30;99.90;;;;;;5064819;28;20457;-82
2021/07/18 09:02:02;;;;;;;1.60;1.50;;;27.30;99.90;;;;;;5065904;28;20457;-82
2021/07/18 09:04:28;;;;;;;1.57;1.00;;;27.30;99.90;;;;;;5081303;28;20480;-79
2021/07/18 09:07:04;;;;;;;1.53;1.43;;;27.30;99.90;;;;;;5073434;28;20461;-77
2021/07/18 09:09:32;;;;;;;2.63;1.57;;;27.30;99.90;;;;;;5069605;28;20479;-75
2021/07/18 09:12:00;;;;;;;1.97;1.00;;;27.30;99.90;;;;;;5073091;28;20488;-76
2021/07/18 09:14:32;;;;;;;1.30;1.20;;;27.40;99.90;;;;;;5072059;28;20939;-75
2021/07/18 09:16:59;;;;;;;5.70;1.40;;;27.40;99.90;;;;;;5070897;28;20460;-74
2021/07/18 09:19:29;;;;;;;1.10;1.00;;;27.40;99.90;;;;;;5072312;28;20449;-74
2021/07/18 09:22:12;;;;;;;1.60;1.33;;;27.40;99.90;;;;;;5075065;28;20773;-76
2021/07/18 09:24:41;;;;;;;1.40;1.27;;;27.40;99.90;;;;;;5060621;28;20951;-76
2021/07/18 09:27:11;;;;;;;1.30;0.90;;;27.40;99.90;;;;;;5067968;28;20469;-77
2021/07/18 09:29:41;;;;;;;1.80;1.30;;;27.40;99.90;;;;;;5071944;28;20477;-76
2021/07/18 09:32:09;;;;;;;1.67;1.10;;;27.40;99.90;;;;;;5071227;28;20931;-75
2021/07/18 09:34:38;;;;;;;1.30;1.13;;;27.40;99.90;;;;;;5067963;28;20775;-75
2021/07/18 09:37:07;;;;;;;1.80;1.70;;;27.40;99.90;;;;;;5068894;28;20449;-74
2021/07/18 09:39:35;;;;;;;1.60;1.50;;;27.40;99.90;;;;;;5062750;28;20802;-74
2021/07/18 09:42:02;;;;;;;1.43;1.30;;;27.30;99.90;;;;;;5061990;28;20483;-74
2021/07/18 09:44:40;;;;;;;1.50;1.07;;;27.30;99.90;;;;;;5065110;28;20464;-74
2021/07/18 09:47:07;;;;;;;1.60;1.50;;;27.30;99.90;;;;;;5062648;28;20465;-73
2021/07/18 09:49:35;;;;;;;2.07;1.20;;;27.30;99.90;;;;;;5062398;28;20942;-73
2021/07/18 09:52:16;;;;;;;1.53;1.20;;;27.30;99.90;;;;;;5062877;28;20464;-74
2021/07/18 09:54:44;;;;;;;1.47;1.37;;;27.20;99.90;;;;;;5060837;28;20456;-73
2021/07/18 09:57:27;;;;;;;1.50;1.30;;;27.30;99.90;;;;;;5061179;28;20452;-73
2021/07/18 09:59:53;;;;;;;1.73;1.40;;;27.30;99.90;;;;;;5061958;28;20540;-73
2021/07/18 10:02:23;;;;;;;1.37;1.23;;;27.30;99.90;;;;;;5065892;28;20469;-73
2021/07/18 10:04:51;;;;;;;3.30;1.30;;;27.20;99.90;;;;;;5062457;28;20453;-77
2021/07/18 10:07:17;;;;;;;1.40;1.20;;;27.20;99.90;;;;;;5065354;28;20457;-74
2021/07/18 10:09:45;;;;;;;3.63;1.40;;;27.20;99.90;;;;;;5068365;28;20489;-73
2021/07/18 10:12:12;;;;;;;2.17;1.50;;;27.20;99.90;;;;;;5052682;28;20437;-74
2021/07/18 10:14:40;;;;;;;1.20;1.10;;;27.20;99.90;;;;;;5069045;28;20931;-74
2021/07/18 10:17:07;;;;;;;2.03;1.23;;;27.20;99.90;;;;;;5071376;28;20465;-74
2021/07/18 10:19:34;;;;;;;1.60;1.50;;;27.20;99.90;;;;;;5070384;28;20459;-75
2021/07/18 10:22:02;;;;;;;2.50;1.63;;;27.10;99.90;;;;;;5069556;28;20468;-74
2021/07/18 10:24:30;;;;;;;1.67;1.13;;;27.10;99.90;;;;;;5071349;28;20445;-74
2021/07/18 10:27:02;;;;;;;1.50;1.40;;;27.10;99.90;;;;;;5070531;28;20787;-74
2021/07/18 10:29:28;;;;;;;1.50;1.40;;;27.00;99.90;;;;;;5069036;28;20460;-74
2021/07/18 10:31:57;;;;;;;3.30;1.90;;;27.00;99.90;;;;;;5069184;28;20847;-76
2021/07/18 10:34:28;;;;;;;1.47;1.37;;;27.00;99.90;;;;;;5071194;28;20464;-74
2021/07/18 10:36:55;;;;;;;1.43;1.33;;;27.00;99.90;;;;;;5070785;28;20457;-75
2021/07/18 10:39:29;;;;;;;1.87;1.70;;;27.00;99.90;;;;;;5069810;28;20469;-75
2021/07/18 10:41:58;;;;;;;2.40;1.43;;;27.00;99.90;;;;;;5069118;28;20526;-76
2021/07/18 10:44:25;;;;;;;2.30;1.30;;;27.00;99.90;;;;;;5070586;28;20461;-76
2021/07/18 10:46:54;;;;;;;1.87;1.47;;;27.00;99.90;;;;;;5069744;28;20966;-76
2021/07/18 10:49:55;;;;;;;2.00;1.43;;;27.00;99.90;;;;;;5067993;28;20475;-77
2021/07/18 10:52:24;;;;;;;1.70;1.20;;;26.90;99.90;;;;;;5057010;28;20477;-73
2021/07/18 10:54:51;;;;;;;2.50;1.57;;;26.90;99.90;;;;;;5069895;28;20540;-73
2021/07/18 10:57:32;;;;;;;1.50;1.30;;;26.90;99.90;;;;;;5071667;28;20441;-75
2021/07/18 11:00:19;;;;;;;1.77;1.30;;;26.90;99.90;;;;;;5074467;28;20819;-74
2021/07/18 11:02:46;;;;;;;1.63;1.30;;;26.90;99.90;;;;;;5060842;28;20465;-74
2021/07/18 11:05:16;;;;;;;2.20;1.40;;;26.90;99.90;;;;;;5062139;28;20480;-74
2021/07/18 11:07:54;;;;;;;1.63;1.50;;;26.90;99.90;;;;;;5068965;28;20485;-74
2021/07/18 11:10:23;;;;;;;5.43;1.77;;;26.90;99.90;;;;;;5072756;28;20468;-76
2021/07/18 11:13:01;;;;;;;2.90;1.53;;;26.80;99.90;;;;;;5072738;28;20773;-74
2021/07/18 11:15:35;;;;;;;1.70;1.60;;;26.80;99.90;;;;;;5074442;28;20449;-74
2021/07/18 11:18:05;;;;;;;1.90;1.47;;;26.90;99.90;;;;;;5072019;28;20452;-72
2021/07/18 11:21:05;;;;;;;2.50;1.57;;;26.80;99.90;;;;;;5071598;28;20452;-73
2021/07/18 11:23:35;;;;;;;1.30;1.20;;;26.80;99.90;;;;;;5071784;28;20531;-73
2021/07/18 11:26:20;;;;;;;2.10;1.90;;;26.90;99.90;;;;;;5067832;28;20507;-73
2021/07/18 11:29:01;;;;;;;2.53;1.57;;;26.80;99.90;;;;;;5068730;28;20457;-73
2021/07/18 11:31:40;;;;;;;1.60;1.50;;;26.80;99.90;;;;;;5075077;28;21005;-73
2021/07/18 11:34:23;;;;;;;1.43;1.33;;;26.80;99.90;;;;;;5073989;28;20499;-73
2021/07/18 11:37:04;;;;;;;2.93;1.50;;;26.80;99.90;;;;;;5072799;28;20850;-72
2021/07/18 11:39:34;;;;;;;3.27;2.60;;;26.80;99.90;;;;;;5068907;28;20832;-73
2021/07/18 11:42:08;;;;;;;1.87;1.67;;;26.80;99.90;;;;;;5061977;28;20979;-73
2021/07/18 11:44:39;;;;;;;3.20;1.90;;;26.80;99.90;;;;;;5073588;28;20477;-72
2021/07/18 11:47:08;;;;;;;2.57;1.80;;;26.80;99.90;;;;;;5075112;28;20479;-72
2021/07/18 11:49:39;;;;;;;7.83;1.50;;;26.80;99.90;;;;;;5069719;28;20457;-72
2021/07/18 11:52:08;;;;;;;1.73;1.47;;;26.80;99.90;;;;;;5066318;28;20465;-74
2021/07/18 11:54:36;;;;;;;1.73;1.60;;;26.70;99.90;;;;;;5074042;28;20465;-74
2021/07/18 11:57:06;;;;;;;2.30;2.10;;;26.80;99.90;;;;;;5074286;28;20440;-75
2021/07/18 11:59:34;;;;;;;3.13;1.30;;;26.70;99.90;;;;;;5069378;28;20915;-75
2021/07/18 12:02:02;;;;;;;1.50;1.20;;;26.70;99.90;;;;;;5074105;28;20772;-75
2021/07/18 12:04:29;;;;;;;1.80;1.70;;;26.70;99.90;;;;;;5071721;28;20460;-75
2021/07/18 12:06:59;;;;;;;1.63;1.53;;;26.70;99.90;;;;;;5069414;28;20796;-75
2021/07/18 12:09:27;;;;;;;2.37;1.60;;;26.70;99.90;;;;;;5066807;28;20464;-74
2021/07/18 12:11:56;;;;;;;1.90;1.63;;;26.70;99.90;;;;;;5068795;28;20491;-74
2021/07/18 12:14:22;;;;;;;2.97;1.80;;;26.70;99.90;;;;;;5069464;28;20461;-74
2021/07/18 12:16:54;;;;;;;2.20;1.70;;;26.70;99.90;;;;;;5069052;28;20490;-75
2021/07/18 12:19:25;;;;;;;1.63;1.40;;;26.60;99.90;;;;;;5064231;28;20463;-75
2021/07/18 12:21:52;;;;;;;2.20;1.70;;;26.60;99.90;;;;;;5068368;28;20481;-75
2021/07/18 12:24:24;;;;;;;3.80;1.53;;;26.60;99.90;;;;;;5068408;28;20452;-75
2021/07/18 12:27:02;;;;;;;1.30;1.20;;;26.60;99.90;;;;;;5066731;28;20457;-75
2021/07/18 12:29:30;;;;;;;2.13;1.83;;;26.60;99.90;;;;;;5066655;28;20456;-75
2021/07/18 12:31:57;;;;;;;1.63;1.53;;;26.60;99.90;;;;;;5066414;28;21052;-75
2021/07/18 12:34:29;;;;;;;1.83;1.33;;;26.60;99.90;;;;;;5068211;28;20916;-75
2021/07/18 12:36:58;;;;;;;5.20;1.57;;;26.60;99.90;;;;;;5067825;28;20464;-75
2021/07/18 12:39:28;;;;;;;1.60;1.50;;;26.60;99.90;;;;;;5066047;28;20459;-74
2021/07/18 12:41:57;;;;;;;1.70;1.57;;;26.60;99.90;;;;;;5071504;28;20562;-75
2021/07/18 12:44:26;;;;;;;1.93;1.40;;;26.60;99.90;;;;;;5070876;28;20444;-75
2021/07/18 12:47:24;;;;;;;4.30;1.90;;;26.60;99.90;;;;;;5070218;28;20456;-75
2021/07/18 12:50:18;;;;;;;2.00;1.80;;;26.60;99.90;;;;;;5073647;28;20449;-75
2021/07/18 12:52:57;;;;;;;3.07;2.00;;;26.60;99.90;;;;;;5074066;28;20452;-75
2021/07/18 12:55:27;;;;;;;1.83;1.40;;;26.60;99.90;;;;;;5069437;28;20476;-75